ADDS TAF Board (Experimental) INFO Settings
IDs: Format: Expanded Condensed

KMSP - Minneapolis-St Paul, MN, US

Issued at 0247 UTC 29 Aug 2015
Updated at: 0258 UTC 29 Aug 2015
Time0253Z 29/03Z 29/04Z 29/05Z 29/06Z 29/07Z 29/08Z 29/09Z 29/10Z 29/11Z 29/12Z 29/13Z 29/14Z 29/15Z
Type OBS PRVL PRVL PRVL PRVL PRVL PRVL PRVL PRVL PRVL PRVL PRVL PRVL PRVL
VIS 10 >6 >6 >6 >6 >6 >6 >6 5 5 5 5 >6 >6
CIG -- -- -- -- -- -- -- -- -- -- -- -- -- --
Cover SCT SCT SCT SCT SCT SCT SCT SCT SCT SCT SCT SCT SKC SKC
FltCat VFR VFR VFR VFR VFR VFR VFR VFR MVFR MVFR MVFR MVFR VFR VFR
WX -- -- -- -- -- -- -- -- BR BCFG BR BCFG BR BCFG BR BCFG -- --
WDir 120 130 130 130 130 130 130 130 VRB VRB VRB VRB 110 110
WSpd 3 8 8 8 8 8 8 8 3 3 3 3 4 4
WGst -- -- -- -- -- -- -- -- -- -- -- -- -- --
R04/22
XWnd -3 -8 -8 -8 -8 -8 -8 -8 VRB VRB VRB VRB -4 -4
HWnd 1 1 1 1 1 1 1 1 VRB VRB VRB VRB 2 2
R12/30
XWnd 0 -1 -1 -1 -1 -1 -1 -1 VRB VRB VRB VRB 1 1
HWnd 3 8 8 8 8 8 8 8 VRB VRB VRB VRB 4 4
R17/35
XWnd 2 5 5 5 5 5 5 5 VRB VRB VRB VRB 3 3
HWnd 2 6 6 6 6 6 6 6 VRB VRB VRB VRB 2 2

NOTE: TEMPO conditions in [brackets]. Keep in mind TEMPO conditions might be better (lower impact) than prevailing conditions.

Raw TAF
KMSP 290247Z 2903/3006 13008KT P6SM SCT250
  FM291000 VRB03KT 5SM BR BCFG SCT003
  FM291400 11004KT P6SM SKC


Raw METAR
KMSP 290253Z 12003KT 10SM SCT250 16/13 A3005 RMK AO2 SLP172 T01610128 51017
KMSP 290153Z 13007KT 10SM FEW031 SCT200 17/13 A3004 RMK AO2 SLP169 T01720133
KMSP 290053Z 14005KT 10SM SCT031 BKN200 18/14 A3002 RMK AO2 SLP164 T01830139
KMSP 282353Z 15010KT 10SM FEW022 SCT031 BKN200 20/14 A2999 RMK AO2 SLP155 T02000144 10244 20200 55002

METAR Board
Radar Display
Forecast Discussion

TAF Board Legend

Potential Impact
Threat None Slight Moderate High
Visibility (sm) ≥5.1 5.1>X≥3 3>X≥1 <1
Ceiling (100 ft) ≥30.1 30.1>X≥10 10>X≥5 <5
Wind Speed (kt) <10 10≤X<20 20≤X<30 ≥30
Wind Gust (kt) <15 15≤X<25 25≤X<35 ≥35
Weather No Wx Reported VCTS,-TS,-FZRA,SN TS,FZRA +TS,+FZRA,+SN